Latest Coastal Weather Observations for Lucinda

IDQ60701

Issued at 4:45 pm EST Monday 24 November 2014 (issued every 10 minutes, with the page automatically refreshed every 10 minutes)

About coastal observations | Map of coastal stations | Coastal observations for QLD | Marine services | Other Formats
Station Details ID: 032141 Name: LUCINDA POINT Lat: -18.52 Lon: 146.39 Height: 10.0 m
Data from the previous 72 hours. | See also: Recent months for locations in Queensland
Date/Time
EST
Temp

°C
Wind Pressure Rain
since 9am
mm
Weather Cloud Vis
km
Sea
Height
m
Swell
Dir
 
Speed
knots
Gust
knots
hPa Trend Height
m
Period
s
Dir
24/04:30pm 28.0 ESE 11 13 1010.6 - 0.0 - - - - - - -
24/04:00pm 27.9 E 10 12 1010.6 - 0.0 - - - - - - -
24/03:30pm 27.8 ENE 12 16 1010.6 - 0.0 - - - - - - -
24/03:00pm 27.8 ENE 11 14 1011.0 - 0.0 - - - - - - -
24/02:30pm 27.9 E 11 14 1011.3 - 0.0 - - - - - - -
24/02:00pm 28.2 E 9 11 1011.6 - 0.0 - - - - - - -
24/01:30pm 28.2 E 9 12 1012.1 - 0.0 - - - - - - -
24/01:00pm 28.3 E 9 12 1012.3 - 0.0 - - - - - - -
24/12:30pm 28.0 E 8 11 1012.6 - 0.0 - - - - - - -
24/12:00pm 27.8 E 8 11 1013.0 - 0.0 - - - - - - -
24/11:30am 27.9 E 9 11 1013.1 - 0.0 - - - - - - -
24/11:00am 27.7 ENE 9 12 1013.4 - 0.0 - - - - - - -
24/10:30am 27.2 NE 12 14 1013.6 - 0.0 - - - - - - -
24/10:00am 27.5 ENE 12 15 1013.7 - 0.0 - - - - - - -
24/09:30am 27.7 E 9 13 1013.9 - 0.0 - - - - - - -
24/09:00am 27.3 ENE 11 15 1013.9 - 0.0 - - - - - - -
24/08:30am 27.2 E 11 15 1013.7 - 0.0 - - - - - - -
24/08:00am 27.3 E 11 15 1013.5 - 0.0 - - - - - - -
24/07:30am 27.1 E 11 14 1013.4 - 0.0 - - - - - - -
24/07:00am 27.3 E 11 15 1013.0 - 0.0 - - - - - - -
24/06:30am 26.3 ENE 12 14 1012.7 - 0.0 - - - - - - -
24/06:00am 26.5 ENE 12 16 1012.2 - 0.0 - - - - - - -
24/05:30am 26.4 E 10 13 1012.1 - 0.0 - - - - - - -
24/05:00am 26.3 E 8 10 1011.8 - 0.0 - - - - - - -
24/04:30am 26.3 E 8 11 1012.1 - 0.0 - - - - - - -
24/04:00am 26.5 ENE 9 11 1012.2 - 0.0 - - - - - - -
24/03:30am 26.3 ENE 8 11 1012.2 - 0.0 - - - - - - -
24/03:00am 26.5 ENE 8 11 1012.3 - 0.0 - - - - - - -
24/02:30am 26.5 ENE 8 11 1012.4 - 0.0 - - - - - - -
24/02:00am 26.5 ENE 11 14 1012.4 - 0.0 - - - - - - -
24/01:30am 26.4 ENE 10 14 1012.6 - 0.0 - - - - - - -
24/01:00am 26.5 ENE 10 13 1013.1 - 0.0 - - - - - - -
24/12:30am 26.5 ENE 9 14 1013.6 - 0.0 - - - - - - -
24/12:00am 26.7 ENE 12 14 1013.9 - 0.0 - - - - - - -
 
Date/Time
EST
Temp

°C
Wind Pressure Rain
since 9am
mm
Weather Cloud Vis
km
Sea
Height
m
Swell
Dir
 
Speed
knots
Gust
knots
hPa Trend Height
m
Period
s
Dir
23/11:30pm 26.6 ENE 10 12 1013.9 - 0.0 - - - - - - -
23/11:00pm 26.6 ENE 12 13 1014.3 - 0.0 - - - - - - -
23/10:30pm 26.9 NE 12 14 1014.4 - 0.0 - - - - - - -
23/10:00pm 26.7 ENE 13 15 1014.3 - 0.0 - - - - - - -
23/09:30pm 26.7 ENE 11 13 1014.1 - 0.0 - - - - - - -
23/09:00pm 26.6 NE 10 12 1013.8 - 0.0 - - - - - - -
23/08:30pm 26.9 NE 11 13 1013.5 - 0.0 - - - - - - -
23/08:00pm 26.7 NE 10 13 1013.1 - 0.0 - - - - - - -
23/07:30pm 26.7 ENE 11 14 1012.9 - 0.0 - - - - - - -
23/07:00pm 26.7 ENE 10 13 1012.5 - 0.0 - - - - - - -
23/06:30pm 26.8 E 10 14 1012.3 - 0.0 - - - - - - -
23/06:00pm 27.0 E 11 14 1012.1 - 0.0 - - - - - - -
23/05:30pm 27.1 E 10 14 1012.0 - 0.0 - - - - - - -
23/05:00pm 27.2 E 11 14 1011.9 - 0.0 - - - - - - -
23/04:30pm 27.3 E 12 15 1011.9 - 0.0 - - - - - - -
23/04:00pm 27.5 E 11 14 1011.8 - 0.0 - - - - - - -
23/03:30pm 27.6 E 11 14 1012.0 - 0.0 - - - - - - -
23/03:00pm 27.7 E 11 16 1012.3 - 0.0 - - - - - - -
23/02:30pm 27.9 E 11 14 1012.6 - 0.0 - - - - - - -
23/02:00pm 27.6 E 10 13 1012.9 - 0.0 - - - - - - -
23/01:30pm 27.9 E 10 13 1013.3 - 0.0 - - - - - - -
23/01:00pm 27.8 E 9 12 1013.6 - 0.0 - - - - - - -
23/12:30pm 28.0 E 9 13 1013.9 - 0.0 - - - - - - -
23/12:00pm 27.9 E 8 10 1014.3 - 0.0 - - - - - - -
23/11:30am 27.8 E 9 12 1014.6 - 0.0 - - - - - - -
23/11:00am 27.9 E 9 11 1015.0 - 0.0 - - - - - - -
23/10:30am 28.2 ESE 9 11 1015.2 - 0.0 - - - - - - -
23/10:00am 28.3 E 5 8 1015.1 - 0.0 - - - - - - -
23/09:30am 28.6 ESE 7 9 1014.9 - 0.0 - - - - - - -
23/09:00am 28.6 E 6 7 1015.0 - 0.0 - - - - - - -
23/08:30am 28.0 E 5 7 1015.0 - 0.0 - - - - - - -
23/08:00am 28.3 E 5 8 1014.8 - 0.0 - - - - - - -
23/07:30am 27.6 E 6 8 1014.6 - 0.0 - - - - - - -
23/07:00am 26.7 E 6 8 1014.3 - 0.0 - - - - - - -
23/06:30am 26.4 NE 7 8 1013.8 - 0.0 - - - - - - -
23/06:00am 26.3 NE 6 8 1013.4 - 0.0 - - - - - - -
23/05:30am 26.2 NE 8 10 1012.9 - 0.0 - - - - - - -
23/05:00am 26.2 NE 9 11 1012.6 - 0.0 - - - - - - -
23/04:30am 26.2 NNE 9 11 1012.5 - 0.0 - - - - - - -
23/04:00am 26.3 NNE 9 11 1012.3 - 0.0 - - - - - - -
23/03:30am 26.3 NE 10 11 1012.3 - 0.0 - - - - - - -
23/03:00am 26.4 NE 11 13 1012.2 - 0.0 - - - - - - -
23/02:30am 26.5 NE 12 14 1012.3 - 0.0 - - - - - - -
23/02:00am 26.2 E 5 8 1012.3 - 0.0 - - - - - - -
23/01:30am 26.3 NNE 8 9 1012.6 - 0.0 - - - - - - -
23/01:00am 26.3 NNE 9 11 1013.0 - 0.0 - - - - - - -
23/12:30am 26.5 NNE 11 13 1013.3 - 0.0 - - - - - - -
23/12:00am 26.4 NNE 10 13 1013.7 - 0.0 - - - - - - -
 
Date/Time
EST
Temp

°C
Wind Pressure Rain
since 9am
mm
Weather Cloud Vis
km
Sea
Height
m
Swell
Dir
 
Speed
knots
Gust
knots
hPa Trend Height
m
Period
s
Dir
22/11:30pm 26.7 NNE 12 14 1013.8 - 0.0 - - - - - - -
22/11:00pm 26.4 NNE 12 15 1013.9 - 0.0 - - - - - - -
22/10:30pm 26.4 N 11 13 1014.1 - 0.0 - - - - - - -
22/10:00pm 26.6 N 11 14 1013.9 - 0.0 - - - - - - -
22/09:30pm 26.4 N 12 14 1013.4 - 0.0 - - - - - - -
22/09:00pm 26.6 N 11 13 1013.2 - 0.0 - - - - - - -
22/08:30pm 26.5 N 12 15 1012.9 - 0.0 - - - - - - -
22/08:00pm 26.6 NNE 13 16 1012.8 - 0.0 - - - - - - -
22/07:30pm 26.7 NNE 12 15 1012.6 - 0.0 - - - - - - -
22/07:00pm 26.8 NNE 12 15 1012.4 - 0.0 - - - - - - -
22/06:30pm 26.8 NNE 14 16 1011.8 - 0.0 - - - - - - -
22/06:00pm 26.9 NNE 15 16 1011.6 - 0.0 - - - - - - -
22/05:30pm 26.9 NNE 14 17 1011.4 - 0.0 - - - - - - -
22/05:00pm 27.3 NNE 14 17 1011.2 - 0.0 - - - - - - -
22/04:30pm 27.0 NE 16 17 1010.9 - 0.0 - - - - - - -
22/04:00pm 26.9 NE 16 18 1011.0 - 0.0 - - - - - - -
22/03:30pm 27.2 NE 15 17 1011.2 - 0.0 - - - - - - -
22/03:00pm 27.1 ENE 14 16 1011.5 - 0.0 - - - - - - -
22/02:30pm 27.3 NE 13 15 1011.8 - 0.0 - - - - - - -
22/02:00pm 27.1 NE 12 14 1012.1 - 0.0 - - - - - - -
22/01:30pm 27.3 ENE 11 14 1012.2 - 0.0 - - - - - - -
22/01:00pm 27.3 NE 11 13 1012.5 - 0.0 - - - - - - -
22/12:30pm 27.4 NE 11 13 1013.0 - 0.0 - - - - - - -
22/12:00pm 27.1 NE 10 11 1013.5 - 0.0 - - - - - - -
22/11:30am 27.7 ENE 8 11 1013.8 - 0.0 - - - - - - -
22/11:00am 27.4 NNE 8 9 1014.1 - 0.0 - - - - - - -
22/10:30am 28.9 E 5 7 1014.4 - 0.0 - - - - - - -
22/10:00am 28.5 E 4 5 1014.3 - 0.0 - - - - - - -
22/09:30am 27.9 ENE 4 6 1014.4 - 0.0 - - - - - - -
22/09:00am 28.6 N 3 4 1014.2 - 0.0 - - - - - - -
22/08:30am 27.7 W 2 4 1014.0 - 0.0 - - - - - - -
22/08:00am 26.0 WSW 5 6 1013.9 - 0.0 - - - - - - -
22/07:30am 25.4 WSW 5 6 1013.8 - 0.0 - - - - - - -
22/07:00am 25.2 W 5 6 1013.7 - 0.0 - - - - - - -
22/06:30am 24.9 WSW 7 8 1013.6 - 0.0 - - - - - - -
22/06:00am 25.1 SW 6 7 1013.5 - 0.0 - - - - - - -
22/05:30am 24.9 WSW 6 7 1013.0 - 0.0 - - - - - - -
22/05:00am 25.0 SW 5 6 1012.6 - 0.0 - - - - - - -
22/04:30am 25.5 WSW 4 5 1012.5 - 0.0 - - - - - - -
22/04:00am 26.0 NW 6 8 1012.4 - 0.0 - - - - - - -
22/03:30am 26.2 N 7 10 1012.1 - 0.0 - - - - - - -
22/03:00am 26.2 N 8 12 1011.7 - 0.0 - - - - - - -
22/02:30am 26.3 N 10 13 1011.7 - 0.0 - - - - - - -
22/02:00am 26.2 N 10 13 1011.9 - 0.0 - - - - - - -
22/01:30am 26.2 N 10 12 1012.1 - 0.0 - - - - - - -
22/01:00am 26.4 N 11 13 1012.4 - 0.0 - - - - - - -
22/12:30am 26.2 N 11 13 1012.7 - 0.0 - - - - - - -
22/12:00am 26.2 N 12 15 1013.0 - 0.0 - - - - - - -
 
Date/Time
EST
Temp

°C
Wind Pressure Rain
since 9am
mm
Weather Cloud Vis
km
Sea
Height
m
Swell
Dir
 
Speed
knots
Gust
knots
hPa Trend Height
m
Period
s
Dir
21/11:30pm 26.2 N 13 15 1013.2 - 0.0 - - - - - - -
21/11:00pm 26.2 N 12 15 1013.5 - 0.0 - - - - - - -
21/10:30pm 26.2 N 13 15 1013.6 - 0.0 - - - - - - -
21/10:00pm 26.4 NNE 14 16 1013.5 - 0.0 - - - - - - -
21/09:30pm 26.4 N 15 17 1013.6 - 0.0 - - - - - - -
21/09:00pm 26.4 NNE 14 16 1013.2 - 0.0 - - - - - - -
21/08:30pm 26.2 NNE 14 16 1012.9 - 0.0 - - - - - - -
21/08:00pm 26.3 NNE 14 17 1012.5 - 0.0 - - - - - - -
21/07:30pm 26.5 NNE 15 17 1012.3 - 0.0 - - - - - - -
21/07:00pm 26.3 NNE 14 15 1011.7 - 0.0 - - - - - - -
21/06:30pm 26.4 NNE 14 17 1011.4 - 0.0 - - - - - - -
21/06:00pm 26.5 NNE 14 17 1010.9 - 0.0 - - - - - - -
21/05:30pm 26.5 NE 15 17 1010.8 - 0.0 - - - - - - -
21/05:00pm 26.7 NE 16 18 1010.6 - 0.0 - - - - - - -

Other Formats:

Comma delimited format used in spreadsheet applications
http://www.bom.gov.au/fwo/IDQ60701/IDQ60701.94295.axf

JavaScript Object Notation format (JSON) in row-major order
http://www.bom.gov.au/fwo/IDQ60701/IDQ60701.94295.json